Desbiens, Canada
Current Conditions -  °F | °C
As of 7:00 PM on Sunday 23 Nov 2014 (Local Time) from CYRJ Reporting Station
Overcast Overcast  
Wind Chill: 30°   Ceiling: 1000
Heat Index: 30°   Visibility: 20mi
Dew Point: 27°   Wind: 0mph
Humidity: 86%   Direction: NA
Pressure: 29.97"   Gusts: NA
Location:  48.42°N, 71.95°W
Report Text: CYRJ 240000Z 00000KT 20SM OVC010 M01/M03 A2997 RMK SF8 SLP158
Loading
Personal Weather Stations






























Interactive Weather Map New forecast layout! Learn more

10-Day Weather Forecast

Advertisements
Track Severe Weather on mobile